PWSweather.com
Personal Weather Stations
Station Observations
WATERF01
WaterfordIE

WaterfordIE

Lat: 52.2412507, Lon: -7.1414691

Elevation: 65

Station Type: Davis Vantage Vue

www.waterfordweather.com

High Low Average
Temperature 53.3°F11.8°C 50.0°F10.0°C 51.4°F10.8°C
Dew Point 52.5°F11.4°C 49.5°F9.7°C 50.9°F10.5°C
Winds 17.3 mph 27.8 kmh 3.5 mph 5.6 kmh 9.0 mph WSW14.5 kmh WSW
Wind Gusts 33.4 mph53.8 kmh 5.8 mph9.3 kmh 16.0 mph25.7 kmh
Humidity 99% 90% 98%
Pressure 29.85 in1010.8 mb 29.54 in1000.3 mb -
Precipitation 0.12 in3.0 mm - -
Hour Temp Dew Point Humidity Winds Wind Gusts Pressure Precip Precip Rate Daily Precip Total
12:00 AM 50.5°F10.3°C 50.2°F10.1°C 99% 10.4 mph SW16.7 kmh SW 15.0 mph24.1 kmh 29.85 in1010.8 mb - 0.01 in0.3 mm 0.01 in0.3 mm
12:10 AM 50.4°F10.2°C 50.1°F10.1°C 99% 9.2 mph SW14.8 kmh SW 12.7 mph20.4 kmh 29.84 in1010.5 mb - 0.00 in0.0 mm 0.01 in0.3 mm
12:20 AM 50.3°F10.2°C 50.0°F10.0°C 99% 6.9 mph SW11.1 kmh SW 8.1 mph13.0 kmh 29.84 in1010.5 mb - 0.01 in0.3 mm 0.01 in0.3 mm
12:30 AM 50.2°F10.1°C 49.9°F9.9°C 99% 6.9 mph SW11.1 kmh SW 9.2 mph14.8 kmh 29.84 in1010.5 mb - 0.01 in0.3 mm 0.02 in0.5 mm
12:40 AM 50.3°F10.2°C 50.0°F10.0°C 99% 8.1 mph WSW13.0 kmh WSW 13.8 mph22.2 kmh 29.83 in1010.2 mb - 0.01 in0.3 mm 0.03 in0.8 mm
12:50 AM 50.5°F10.3°C 50.2°F10.1°C 99% 9.2 mph WSW14.8 kmh WSW 20.7 mph33.3 kmh 29.83 in1010.2 mb - 0.00 in0.0 mm 0.03 in0.8 mm
01:00 AM 50.7°F10.4°C 50.4°F10.2°C 99% 6.9 mph WSW11.1 kmh WSW 13.8 mph22.2 kmh 29.82 in1009.8 mb - 0.00 in0.0 mm 0.03 in0.8 mm
01:10 AM 51.1°F10.6°C 50.8°F10.4°C 99% 10.4 mph W16.7 kmh W 13.8 mph22.2 kmh 29.81 in1009.5 mb - 0.00 in0.0 mm 0.03 in0.8 mm
01:20 AM 51.3°F10.7°C 51.0°F10.6°C 99% 10.4 mph WSW16.7 kmh WSW 16.1 mph25.9 kmh 29.80 in1009.1 mb - 0.01 in0.3 mm 0.04 in1.0 mm
01:30 AM 51.4°F10.8°C 51.1°F10.6°C 99% 9.2 mph WSW14.8 kmh WSW 13.8 mph22.2 kmh 29.80 in1009.1 mb - 0.00 in0.0 mm 0.04 in1.0 mm
01:40 AM 51.7°F10.9°C 51.4°F10.8°C 99% 13.8 mph WSW22.2 kmh WSW 21.9 mph35.2 kmh 29.79 in1008.8 mb - 0.01 in0.3 mm 0.05 in1.3 mm
01:50 AM 51.7°F10.9°C 51.5°F10.8°C 99% 10.4 mph WNW16.7 kmh WNW 25.3 mph40.7 kmh 29.79 in1008.8 mb - 0.00 in0.0 mm 0.05 in1.3 mm
02:00 AM 51.7°F10.9°C 51.4°F10.8°C 99% 6.9 mph SW11.1 kmh SW 11.5 mph18.5 kmh 29.79 in1008.8 mb - 0.00 in0.0 mm 0.05 in1.3 mm
02:10 AM 51.8°F11.0°C 51.5°F10.8°C 99% 8.1 mph W13.0 kmh W 13.8 mph22.2 kmh 29.78 in1008.5 mb - 0.00 in0.0 mm 0.05 in1.3 mm
02:20 AM 51.8°F11.0°C 51.5°F10.8°C 99% 9.2 mph WSW14.8 kmh WSW 16.1 mph25.9 kmh 29.78 in1008.5 mb - 0.00 in0.0 mm 0.05 in1.3 mm
02:30 AM 51.6°F10.9°C 51.3°F10.7°C 99% 6.9 mph NW11.1 kmh NW 9.2 mph14.8 kmh 29.79 in1008.8 mb - 0.01 in0.3 mm 0.06 in1.5 mm
02:40 AM 51.6°F10.9°C 51.3°F10.7°C 99% 8.1 mph WSW13.0 kmh WSW 13.8 mph22.2 kmh 29.78 in1008.5 mb - 0.01 in0.3 mm 0.07 in1.8 mm
02:50 AM 51.6°F10.9°C 51.3°F10.7°C 99% 8.1 mph W13.0 kmh W 13.8 mph22.2 kmh 29.78 in1008.5 mb - 0.00 in0.0 mm 0.07 in1.8 mm
03:00 AM 51.6°F10.9°C 51.3°F10.7°C 99% 10.4 mph W16.7 kmh W 16.1 mph25.9 kmh 29.77 in1008.1 mb - 0.00 in0.0 mm 0.07 in1.8 mm
03:10 AM 51.6°F10.9°C 51.3°F10.7°C 99% 5.8 mph WSW9.3 kmh WSW 11.5 mph18.5 kmh 29.77 in1008.1 mb - 0.00 in0.0 mm 0.07 in1.8 mm
03:20 AM 51.7°F10.9°C 51.4°F10.8°C 99% 8.1 mph WSW13.0 kmh WSW 13.8 mph22.2 kmh 29.77 in1008.1 mb - 0.00 in0.0 mm 0.07 in1.8 mm
03:30 AM 51.7°F10.9°C 51.4°F10.8°C 99% 8.1 mph W13.0 kmh W 18.4 mph29.6 kmh 29.76 in1007.8 mb - 0.00 in0.0 mm 0.07 in1.8 mm
03:40 AM 51.8°F11.0°C 51.5°F10.8°C 99% 9.2 mph SW14.8 kmh SW 13.8 mph22.2 kmh 29.76 in1007.8 mb - 0.00 in0.0 mm 0.07 in1.8 mm
03:50 AM 51.8°F11.0°C 51.5°F10.8°C 99% 6.9 mph W11.1 kmh W 11.5 mph18.5 kmh 29.76 in1007.8 mb - 0.00 in0.0 mm 0.07 in1.8 mm
04:00 AM 51.8°F11.0°C 51.5°F10.8°C 99% 9.2 mph W14.8 kmh W 15.0 mph24.1 kmh 29.76 in1007.8 mb - 0.00 in0.0 mm 0.07 in1.8 mm
04:10 AM 51.7°F10.9°C 51.5°F10.8°C 99% 8.1 mph WSW13.0 kmh WSW 11.5 mph18.5 kmh 29.75 in1007.5 mb - 0.00 in0.0 mm 0.07 in1.8 mm
04:20 AM 51.7°F10.9°C 51.4°F10.8°C 99% 9.2 mph SW14.8 kmh SW 19.6 mph31.5 kmh 29.75 in1007.5 mb - 0.01 in0.3 mm 0.08 in2.0 mm
04:30 AM 51.7°F10.9°C 51.4°F10.8°C 99% 8.1 mph WNW13.0 kmh WNW 11.5 mph18.5 kmh 29.74 in1007.1 mb - 0.00 in0.0 mm 0.08 in2.0 mm
04:40 AM 51.6°F10.9°C 51.3°F10.7°C 99% 9.2 mph W14.8 kmh W 16.1 mph25.9 kmh 29.74 in1007.1 mb - 0.00 in0.0 mm 0.08 in2.0 mm
04:50 AM 51.7°F10.9°C 51.4°F10.8°C 99% 12.7 mph WSW20.4 kmh WSW 19.6 mph31.5 kmh 29.74 in1007.1 mb - 0.00 in0.0 mm 0.08 in2.0 mm
05:00 AM 51.7°F10.9°C 51.4°F10.8°C 99% 9.2 mph WSW14.8 kmh WSW 18.4 mph29.6 kmh 29.73 in1006.8 mb - 0.00 in0.0 mm 0.08 in2.0 mm
05:10 AM 51.7°F10.9°C 51.5°F10.8°C 99% 12.7 mph WSW20.4 kmh WSW 25.3 mph40.7 kmh 29.73 in1006.8 mb - 0.00 in0.0 mm 0.08 in2.0 mm
05:20 AM 51.8°F11.0°C 51.5°F10.8°C 99% 10.4 mph W16.7 kmh W 19.6 mph31.5 kmh 29.73 in1006.8 mb - 0.00 in0.0 mm 0.08 in2.0 mm
05:30 AM 51.8°F11.0°C 51.5°F10.8°C 99% 11.5 mph NW18.5 kmh NW 19.6 mph31.5 kmh 29.72 in1006.4 mb - 0.00 in0.0 mm 0.08 in2.0 mm
05:40 AM 51.8°F11.0°C 51.5°F10.8°C 99% 10.4 mph SW16.7 kmh SW 19.6 mph31.5 kmh 29.72 in1006.4 mb - 0.00 in0.0 mm 0.08 in2.0 mm
05:50 AM 51.9°F11.1°C 51.6°F10.9°C 99% 12.7 mph NNW20.4 kmh NNW 21.9 mph35.2 kmh 29.72 in1006.4 mb - 0.00 in0.0 mm 0.08 in2.0 mm
06:00 AM 51.9°F11.1°C 51.6°F10.9°C 99% 10.4 mph W16.7 kmh W 18.4 mph29.6 kmh 29.71 in1006.1 mb - 0.00 in0.0 mm 0.08 in2.0 mm
06:10 AM 51.8°F11.0°C 51.5°F10.8°C 99% 11.5 mph WSW18.5 kmh WSW 16.1 mph25.9 kmh 29.72 in1006.4 mb - 0.00 in0.0 mm 0.08 in2.0 mm
06:20 AM 51.8°F11.0°C 51.5°F10.8°C 99% 9.2 mph WSW14.8 kmh WSW 16.1 mph25.9 kmh 29.71 in1006.1 mb - 0.00 in0.0 mm 0.08 in2.0 mm
06:30 AM 51.8°F11.0°C 51.5°F10.8°C 99% 9.2 mph WSW14.8 kmh WSW 16.1 mph25.9 kmh 29.72 in1006.4 mb - 0.01 in0.3 mm 0.09 in2.3 mm
06:40 AM 51.7°F10.9°C 51.4°F10.8°C 99% 10.4 mph WSW16.7 kmh WSW 21.9 mph35.2 kmh 29.72 in1006.4 mb - 0.01 in0.3 mm 0.09 in2.3 mm
06:50 AM 51.7°F10.9°C 51.4°F10.8°C 99% 11.5 mph W18.5 kmh W 18.4 mph29.6 kmh 29.71 in1006.1 mb - 0.00 in0.0 mm 0.09 in2.3 mm
07:00 AM 51.5°F10.8°C 51.3°F10.7°C 99% 12.7 mph W20.4 kmh W 19.6 mph31.5 kmh 29.71 in1006.1 mb - 0.00 in0.0 mm 0.09 in2.3 mm
07:10 AM 51.4°F10.8°C 51.1°F10.6°C 99% 11.5 mph W18.5 kmh W 16.1 mph25.9 kmh 29.71 in1006.1 mb - 0.00 in0.0 mm 0.09 in2.3 mm
07:20 AM 51.4°F10.8°C 51.1°F10.6°C 99% 9.2 mph W14.8 kmh W 13.8 mph22.2 kmh 29.71 in1006.1 mb - 0.00 in0.0 mm 0.09 in2.3 mm
07:30 AM 51.4°F10.8°C 51.1°F10.6°C 99% 10.4 mph W16.7 kmh W 15.0 mph24.1 kmh 29.71 in1006.1 mb - 0.00 in0.0 mm 0.09 in2.3 mm
07:40 AM 51.2°F10.7°C 50.9°F10.5°C 99% 10.4 mph W16.7 kmh W 18.4 mph29.6 kmh 29.71 in1006.1 mb - 0.00 in0.0 mm 0.09 in2.3 mm
07:50 AM 51.0°F10.6°C 50.7°F10.4°C 99% 10.4 mph WSW16.7 kmh WSW 20.7 mph33.3 kmh 29.71 in1006.1 mb - 0.00 in0.0 mm 0.09 in2.3 mm
08:00 AM 50.9°F10.5°C 50.6°F10.3°C 99% 8.1 mph WSW13.0 kmh WSW 15.0 mph24.1 kmh 29.72 in1006.4 mb - 0.00 in0.0 mm 0.09 in2.3 mm
08:10 AM 50.8°F10.4°C 50.5°F10.3°C 99% 8.1 mph NW13.0 kmh NW 20.7 mph33.3 kmh 29.71 in1006.1 mb - 0.00 in0.0 mm 0.09 in2.3 mm
08:20 AM 50.7°F10.4°C 50.5°F10.3°C 99% 8.1 mph W13.0 kmh W 16.1 mph25.9 kmh 29.71 in1006.1 mb - 0.00 in0.0 mm 0.09 in2.3 mm
08:30 AM 50.8°F10.4°C 50.5°F10.3°C 99% 10.4 mph WSW16.7 kmh WSW 18.4 mph29.6 kmh 29.71 in1006.1 mb - 0.00 in0.0 mm 0.09 in2.3 mm
08:40 AM 50.8°F10.4°C 50.5°F10.3°C 99% 8.1 mph WSW13.0 kmh WSW 16.1 mph25.9 kmh 29.71 in1006.1 mb - 0.01 in0.3 mm 0.10 in2.5 mm
08:50 AM 50.8°F10.4°C 50.6°F10.3°C 99% 10.4 mph W16.7 kmh W 13.8 mph22.2 kmh 29.71 in1006.1 mb - 0.00 in0.0 mm 0.10 in2.5 mm
09:00 AM 50.9°F10.5°C 50.6°F10.3°C 99% 9.2 mph WSW14.8 kmh WSW 15.0 mph24.1 kmh 29.71 in1006.1 mb - 0.00 in0.0 mm 0.10 in2.5 mm
09:10 AM 50.9°F10.5°C 50.6°F10.3°C 99% 6.9 mph WSW11.1 kmh WSW 19.6 mph31.5 kmh 29.71 in1006.1 mb - 0.01 in0.3 mm 0.11 in2.8 mm
09:20 AM 50.9°F10.5°C 50.6°F10.3°C 99% 10.4 mph W16.7 kmh W 16.1 mph25.9 kmh 29.71 in1006.1 mb - 0.00 in0.0 mm 0.11 in2.8 mm
09:30 AM 51.0°F10.6°C 50.7°F10.4°C 99% 10.4 mph W16.7 kmh W 16.1 mph25.9 kmh 29.71 in1006.1 mb - 0.00 in0.0 mm 0.11 in2.8 mm
09:40 AM 51.2°F10.7°C 50.9°F10.5°C 99% 11.5 mph W18.5 kmh W 18.4 mph29.6 kmh 29.70 in1005.8 mb - 0.00 in0.0 mm 0.11 in2.8 mm
09:50 AM 51.3°F10.7°C 51.0°F10.6°C 99% 8.1 mph W13.0 kmh W 13.8 mph22.2 kmh 29.70 in1005.8 mb - 0.00 in0.0 mm 0.11 in2.8 mm
10:00 AM 51.3°F10.7°C 51.0°F10.6°C 99% 10.4 mph WSW16.7 kmh WSW 13.8 mph22.2 kmh 29.70 in1005.8 mb - 0.01 in0.3 mm 0.12 in3.0 mm
10:10 AM 51.3°F10.7°C 51.0°F10.6°C 99% 9.2 mph W14.8 kmh W 13.8 mph22.2 kmh 29.71 in1006.1 mb - 0.00 in0.0 mm 0.12 in3.0 mm
10:20 AM 51.3°F10.7°C 51.0°F10.6°C 99% 10.4 mph W16.7 kmh W 15.0 mph24.1 kmh 29.71 in1006.1 mb - 0.00 in0.0 mm 0.12 in3.0 mm
10:30 AM 51.3°F10.7°C 51.0°F10.6°C 99% 11.5 mph W18.5 kmh W 19.6 mph31.5 kmh 29.71 in1006.1 mb - 0.00 in0.0 mm 0.12 in3.0 mm
10:40 AM 51.4°F10.8°C 51.1°F10.6°C 99% 9.2 mph W14.8 kmh W 16.1 mph25.9 kmh 29.71 in1006.1 mb - 0.00 in0.0 mm 0.12 in3.0 mm
10:50 AM 51.4°F10.8°C 51.1°F10.6°C 99% 9.2 mph W14.8 kmh W 15.0 mph24.1 kmh 29.71 in1006.1 mb - 0.00 in0.0 mm 0.12 in3.0 mm
11:00 AM 51.5°F10.8°C 51.2°F10.7°C 99% 9.2 mph WSW14.8 kmh WSW 19.6 mph31.5 kmh 29.72 in1006.4 mb - 0.00 in0.0 mm 0.12 in3.0 mm
11:10 AM 51.5°F10.8°C 51.2°F10.7°C 99% 9.2 mph W14.8 kmh W 13.8 mph22.2 kmh 29.72 in1006.4 mb - 0.00 in0.0 mm 0.12 in3.0 mm
11:20 AM 51.6°F10.9°C 51.3°F10.7°C 99% 9.2 mph WSW14.8 kmh WSW 15.0 mph24.1 kmh 29.73 in1006.8 mb - 0.00 in0.0 mm 0.12 in3.0 mm
11:30 AM 51.6°F10.9°C 51.3°F10.7°C 99% 6.9 mph WSW11.1 kmh WSW 11.5 mph18.5 kmh 29.73 in1006.8 mb - 0.00 in0.0 mm 0.12 in3.0 mm
11:40 AM 51.5°F10.8°C 51.2°F10.7°C 99% 9.2 mph W14.8 kmh W 15.0 mph24.1 kmh 29.73 in1006.8 mb - 0.00 in0.0 mm 0.12 in3.0 mm
11:50 AM 51.5°F10.8°C 51.2°F10.7°C 99% 6.9 mph W11.1 kmh W 13.8 mph22.2 kmh 29.72 in1006.4 mb - 0.00 in0.0 mm 0.12 in3.0 mm
12:00 PM 51.7°F10.9°C 51.2°F10.7°C 98% 9.2 mph W14.8 kmh W 20.7 mph33.3 kmh 29.71 in1006.1 mb - 0.00 in0.0 mm 0.12 in3.0 mm
12:10 PM 52.1°F11.2°C 51.6°F10.9°C 98% 5.8 mph WSW9.3 kmh WSW 11.5 mph18.5 kmh 29.71 in1006.1 mb - 0.00 in0.0 mm 0.12 in3.0 mm
12:20 PM 52.8°F11.6°C 52.5°F11.4°C 99% 6.9 mph WSW11.1 kmh WSW 13.8 mph22.2 kmh 29.73 in1006.8 mb - 0.00 in0.0 mm 0.12 in3.0 mm
12:30 PM 52.7°F11.5°C 52.4°F11.3°C 99% 9.2 mph W14.8 kmh W 13.8 mph22.2 kmh 29.73 in1006.8 mb - 0.00 in0.0 mm 0.12 in3.0 mm
12:40 PM 52.6°F11.4°C 52.3°F11.3°C 99% 6.9 mph W11.1 kmh W 11.5 mph18.5 kmh 29.73 in1006.8 mb - 0.00 in0.0 mm 0.12 in3.0 mm
12:50 PM 52.7°F11.5°C 52.4°F11.3°C 99% 9.2 mph WSW14.8 kmh WSW 13.8 mph22.2 kmh 29.73 in1006.8 mb - 0.00 in0.0 mm 0.12 in3.0 mm
01:00 PM 52.8°F11.6°C 52.3°F11.3°C 98% 8.1 mph WSW13.0 kmh WSW 13.8 mph22.2 kmh 29.72 in1006.4 mb - 0.00 in0.0 mm 0.12 in3.0 mm
01:10 PM 52.8°F11.6°C 52.0°F11.1°C 97% 8.1 mph W13.0 kmh W 12.7 mph20.4 kmh 29.72 in1006.4 mb - 0.00 in0.0 mm 0.12 in3.0 mm
01:20 PM 52.8°F11.6°C 52.2°F11.2°C 98% 8.1 mph W13.0 kmh W 13.8 mph22.2 kmh 29.72 in1006.4 mb - 0.00 in0.0 mm 0.12 in3.0 mm
01:30 PM 52.9°F11.6°C 52.1°F11.2°C 97% 8.1 mph WSW13.0 kmh WSW 12.7 mph20.4 kmh 29.72 in1006.4 mb - 0.00 in0.0 mm 0.12 in3.0 mm
01:40 PM 53.0°F11.7°C 52.2°F11.2°C 97% 8.1 mph WNW13.0 kmh WNW 16.1 mph25.9 kmh 29.72 in1006.4 mb - 0.00 in0.0 mm 0.12 in3.0 mm
01:50 PM 53.0°F11.7°C 52.2°F11.2°C 97% 9.2 mph N14.8 kmh N 15.0 mph24.1 kmh 29.72 in1006.4 mb - 0.00 in0.0 mm 0.12 in3.0 mm
02:00 PM 52.9°F11.6°C 52.1°F11.2°C 97% 8.1 mph W13.0 kmh W 12.7 mph20.4 kmh 29.73 in1006.8 mb - 0.00 in0.0 mm 0.12 in3.0 mm
02:10 PM 53.2°F11.8°C 52.1°F11.2°C 96% 8.1 mph WNW13.0 kmh WNW 13.8 mph22.2 kmh 29.73 in1006.8 mb - 0.00 in0.0 mm 0.12 in3.0 mm
02:20 PM 53.2°F11.8°C 51.2°F10.7°C 93% 6.9 mph WSW11.1 kmh WSW 12.7 mph20.4 kmh 29.73 in1006.8 mb - 0.00 in0.0 mm 0.12 in3.0 mm
02:30 PM 53.3°F11.8°C 51.6°F10.9°C 94% 4.6 mph WSW7.4 kmh WSW 6.9 mph11.1 kmh 29.73 in1006.8 mb - 0.00 in0.0 mm 0.12 in3.0 mm
02:40 PM 53.3°F11.8°C 51.6°F10.9°C 94% 6.9 mph W11.1 kmh W 12.7 mph20.4 kmh 29.74 in1007.1 mb - 0.00 in0.0 mm 0.12 in3.0 mm
02:50 PM 53.2°F11.8°C 51.2°F10.7°C 93% 6.9 mph W11.1 kmh W 16.1 mph25.9 kmh 29.74 in1007.1 mb - 0.00 in0.0 mm 0.12 in3.0 mm
03:00 PM 53.2°F11.8°C 50.6°F10.3°C 91% 8.1 mph WNW13.0 kmh WNW 13.8 mph22.2 kmh 29.74 in1007.1 mb - 0.00 in0.0 mm 0.12 in3.0 mm
03:10 PM 53.1°F11.7°C 50.2°F10.1°C 90% 6.9 mph W11.1 kmh W 16.1 mph25.9 kmh 29.75 in1007.5 mb - 0.00 in0.0 mm 0.12 in3.0 mm
03:20 PM 52.8°F11.6°C 50.2°F10.1°C 91% 6.9 mph WSW11.1 kmh WSW 11.5 mph18.5 kmh 29.75 in1007.5 mb - 0.00 in0.0 mm 0.12 in3.0 mm
03:30 PM 52.5°F11.4°C 50.2°F10.1°C 92% 6.9 mph WSW11.1 kmh WSW 11.5 mph18.5 kmh 29.76 in1007.8 mb - 0.00 in0.0 mm 0.12 in3.0 mm
03:40 PM 52.0°F11.1°C 50.6°F10.3°C 95% 5.8 mph W9.3 kmh W 15.0 mph24.1 kmh 29.76 in1007.8 mb - 0.00 in0.0 mm 0.12 in3.0 mm
03:50 PM 51.8°F11.0°C 50.4°F10.2°C 95% 5.8 mph W9.3 kmh W 12.7 mph20.4 kmh 29.76 in1007.8 mb - 0.00 in0.0 mm 0.12 in3.0 mm
04:00 PM 51.6°F10.9°C 50.5°F10.3°C 96% 6.9 mph NW11.1 kmh NW 9.2 mph14.8 kmh 29.75 in1007.5 mb - 0.00 in0.0 mm 0.12 in3.0 mm
04:10 PM 51.4°F10.8°C 50.3°F10.2°C 96% 5.8 mph WSW9.3 kmh WSW 11.5 mph18.5 kmh 29.76 in1007.8 mb - 0.00 in0.0 mm 0.12 in3.0 mm
04:20 PM 51.2°F10.7°C 50.1°F10.1°C 96% 5.8 mph W9.3 kmh W 11.5 mph18.5 kmh 29.76 in1007.8 mb - 0.00 in0.0 mm 0.12 in3.0 mm
04:30 PM 51.0°F10.6°C 49.9°F9.9°C 96% 5.8 mph WSW9.3 kmh WSW 11.5 mph18.5 kmh 29.76 in1007.8 mb - 0.00 in0.0 mm 0.12 in3.0 mm
04:40 PM 50.7°F10.4°C 49.6°F9.8°C 96% 4.6 mph WSW7.4 kmh WSW 8.1 mph13.0 kmh 29.76 in1007.8 mb - 0.00 in0.0 mm 0.12 in3.0 mm
04:50 PM 50.5°F10.3°C 49.7°F9.8°C 97% 5.8 mph NW9.3 kmh NW 9.2 mph14.8 kmh 29.76 in1007.8 mb - 0.00 in0.0 mm 0.12 in3.0 mm
05:00 PM 50.4°F10.2°C 49.9°F9.9°C 98% 5.8 mph W9.3 kmh W 11.5 mph18.5 kmh 29.75 in1007.5 mb - 0.00 in0.0 mm 0.12 in3.0 mm
05:10 PM 50.3°F10.2°C 49.8°F9.9°C 98% 5.8 mph W9.3 kmh W 8.1 mph13.0 kmh 29.76 in1007.8 mb - 0.00 in0.0 mm 0.12 in3.0 mm
05:20 PM 50.2°F10.1°C 49.9°F9.9°C 99% 4.6 mph NW7.4 kmh NW 6.9 mph11.1 kmh 29.76 in1007.8 mb - 0.00 in0.0 mm 0.12 in3.0 mm
05:30 PM 50.2°F10.1°C 49.9°F9.9°C 99% 3.5 mph WNW5.6 kmh WNW 8.1 mph13.0 kmh 29.76 in1007.8 mb - 0.00 in0.0 mm 0.12 in3.0 mm
05:40 PM 50.1°F10.1°C 49.8°F9.9°C 99% 5.8 mph WSW9.3 kmh WSW 11.5 mph18.5 kmh 29.76 in1007.8 mb - 0.00 in0.0 mm 0.12 in3.0 mm
05:50 PM 50.2°F10.1°C 49.7°F9.8°C 98% 3.5 mph SSW5.6 kmh SSW 11.5 mph18.5 kmh 29.76 in1007.8 mb - 0.00 in0.0 mm 0.12 in3.0 mm
06:00 PM 50.1°F10.1°C 49.6°F9.8°C 98% 3.5 mph W5.6 kmh W 5.8 mph9.3 kmh 29.76 in1007.8 mb - 0.00 in0.0 mm 0.12 in3.0 mm
06:10 PM 50.0°F10.0°C 49.5°F9.7°C 98% 4.6 mph W7.4 kmh W 9.2 mph14.8 kmh 29.75 in1007.5 mb - 0.00 in0.0 mm 0.12 in3.0 mm
06:20 PM 50.1°F10.1°C 49.6°F9.8°C 98% 6.9 mph WSW11.1 kmh WSW 11.5 mph18.5 kmh 29.75 in1007.5 mb - 0.00 in0.0 mm 0.12 in3.0 mm
06:30 PM 50.2°F10.1°C 49.7°F9.8°C 98% 6.9 mph WSW11.1 kmh WSW 12.7 mph20.4 kmh 29.75 in1007.5 mb - 0.00 in0.0 mm 0.12 in3.0 mm
06:40 PM 50.1°F10.1°C 49.6°F9.8°C 98% 6.9 mph WSW11.1 kmh WSW 15.0 mph24.1 kmh 29.75 in1007.5 mb - 0.00 in0.0 mm 0.12 in3.0 mm
06:50 PM 50.0°F10.0°C 49.5°F9.7°C 98% 5.8 mph WNW9.3 kmh WNW 11.5 mph18.5 kmh 29.75 in1007.5 mb - 0.00 in0.0 mm 0.12 in3.0 mm
07:00 PM 50.2°F10.1°C 49.9°F9.9°C 99% 6.9 mph W11.1 kmh W 13.8 mph22.2 kmh 29.73 in1006.8 mb - 0.00 in0.0 mm 0.12 in3.0 mm
07:10 PM 50.3°F10.2°C 49.8°F9.9°C 98% 5.8 mph SW9.3 kmh SW 16.1 mph25.9 kmh 29.73 in1006.8 mb - 0.00 in0.0 mm 0.12 in3.0 mm
07:20 PM 50.6°F10.3°C 50.1°F10.1°C 98% 11.5 mph WSW18.5 kmh WSW 18.4 mph29.6 kmh 29.73 in1006.8 mb - 0.00 in0.0 mm 0.12 in3.0 mm
07:30 PM 50.5°F10.3°C 50.0°F10.0°C 98% 8.1 mph W13.0 kmh W 12.7 mph20.4 kmh 29.73 in1006.8 mb - 0.00 in0.0 mm 0.12 in3.0 mm
07:40 PM 50.3°F10.2°C 49.5°F9.7°C 97% 8.1 mph WSW13.0 kmh WSW 13.8 mph22.2 kmh 29.73 in1006.8 mb - 0.00 in0.0 mm 0.12 in3.0 mm
07:50 PM 50.3°F10.2°C 49.5°F9.7°C 97% 9.2 mph W14.8 kmh W 19.6 mph31.5 kmh 29.71 in1006.1 mb - 0.00 in0.0 mm 0.12 in3.0 mm
08:00 PM 50.5°F10.3°C 49.7°F9.8°C 97% 9.2 mph WSW14.8 kmh WSW 16.1 mph25.9 kmh 29.71 in1006.1 mb - 0.00 in0.0 mm 0.12 in3.0 mm
08:10 PM 50.6°F10.3°C 49.8°F9.9°C 97% 10.4 mph ENE16.7 kmh ENE 16.1 mph25.9 kmh 29.71 in1006.1 mb - 0.00 in0.0 mm 0.12 in3.0 mm
08:20 PM 50.7°F10.4°C 50.1°F10.1°C 98% 11.5 mph SW18.5 kmh SW 19.6 mph31.5 kmh 29.69 in1005.4 mb - 0.00 in0.0 mm 0.12 in3.0 mm
08:30 PM 50.7°F10.4°C 50.2°F10.1°C 98% 11.5 mph WSW18.5 kmh WSW 20.7 mph33.3 kmh 29.69 in1005.4 mb - 0.00 in0.0 mm 0.12 in3.0 mm
08:40 PM 50.8°F10.4°C 50.3°F10.2°C 98% 10.4 mph SW16.7 kmh SW 20.7 mph33.3 kmh 29.69 in1005.4 mb - 0.00 in0.0 mm 0.12 in3.0 mm
08:50 PM 50.9°F10.5°C 50.4°F10.2°C 98% 11.5 mph SW18.5 kmh SW 19.6 mph31.5 kmh 29.68 in1005.1 mb - 0.00 in0.0 mm 0.12 in3.0 mm
09:00 PM 51.0°F10.6°C 50.5°F10.3°C 98% 10.4 mph WSW16.7 kmh WSW 13.8 mph22.2 kmh 29.68 in1005.1 mb - 0.00 in0.0 mm 0.12 in3.0 mm
09:10 PM 51.0°F10.6°C 50.4°F10.2°C 98% 12.7 mph WSW20.4 kmh WSW 19.6 mph31.5 kmh 29.66 in1004.4 mb - 0.00 in0.0 mm 0.12 in3.0 mm
09:20 PM 50.9°F10.5°C 50.4°F10.2°C 98% 9.2 mph SW14.8 kmh SW 12.7 mph20.4 kmh 29.65 in1004.1 mb - 0.00 in0.0 mm 0.12 in3.0 mm
09:30 PM 50.9°F10.5°C 50.4°F10.2°C 98% 10.4 mph WSW16.7 kmh WSW 18.4 mph29.6 kmh 29.63 in1003.4 mb - 0.00 in0.0 mm 0.12 in3.0 mm
09:40 PM 50.8°F10.4°C 50.5°F10.3°C 99% 11.5 mph W18.5 kmh W 20.7 mph33.3 kmh 29.63 in1003.4 mb - 0.00 in0.0 mm 0.12 in3.0 mm
09:50 PM 51.0°F10.6°C 50.7°F10.4°C 99% 15.0 mph WNW24.1 kmh WNW 19.6 mph31.5 kmh 29.63 in1003.4 mb - 0.00 in0.0 mm 0.12 in3.0 mm
10:00 PM 51.3°F10.7°C 51.0°F10.6°C 99% 13.8 mph SW22.2 kmh SW 29.9 mph48.1 kmh 29.62 in1003.0 mb - 0.00 in0.0 mm 0.12 in3.0 mm
10:10 PM 51.5°F10.8°C 51.2°F10.7°C 99% 12.7 mph SW20.4 kmh SW 21.9 mph35.2 kmh 29.61 in1002.7 mb - 0.00 in0.0 mm 0.12 in3.0 mm
10:20 PM 51.7°F10.9°C 51.2°F10.7°C 98% 13.8 mph W22.2 kmh W 21.9 mph35.2 kmh 29.60 in1002.4 mb - 0.00 in0.0 mm 0.12 in3.0 mm
10:30 PM 51.8°F11.0°C 51.3°F10.7°C 98% 17.3 mph WSW27.8 kmh WSW 25.3 mph40.7 kmh 29.59 in1002.0 mb - 0.00 in0.0 mm 0.12 in3.0 mm
10:40 PM 51.9°F11.1°C 51.1°F10.6°C 97% 13.8 mph W22.2 kmh W 23.0 mph37.0 kmh 29.57 in1001.4 mb - 0.00 in0.0 mm 0.12 in3.0 mm
10:50 PM 51.9°F11.1°C 51.4°F10.8°C 98% 17.3 mph WSW27.8 kmh WSW 27.6 mph44.4 kmh 29.56 in1001.0 mb - 0.00 in0.0 mm 0.12 in3.0 mm
11:00 PM 51.8°F11.0°C 51.3°F10.7°C 98% 17.3 mph SW27.8 kmh SW 26.5 mph42.6 kmh 29.56 in1001.0 mb - 0.00 in0.0 mm 0.12 in3.0 mm
11:10 PM 52.0°F11.1°C 51.4°F10.8°C 98% 17.3 mph W27.8 kmh W 28.8 mph46.3 kmh 29.55 in1000.7 mb - 0.00 in0.0 mm 0.12 in3.0 mm
11:20 PM 52.0°F11.1°C 51.5°F10.8°C 98% 16.1 mph WSW25.9 kmh WSW 33.4 mph53.8 kmh 29.54 in1000.3 mb - 0.00 in0.0 mm 0.12 in3.0 mm
11:30 PM 52.0°F11.1°C 51.2°F10.7°C 97% 16.1 mph WSW25.9 kmh WSW 23.0 mph37.0 kmh 29.54 in1000.3 mb - 0.00 in0.0 mm 0.12 in3.0 mm
11:40 PM 52.2°F11.2°C 51.1°F10.6°C 96% 16.1 mph SW25.9 kmh SW 25.3 mph40.7 kmh 29.54 in1000.3 mb - 0.00 in0.0 mm 0.12 in3.0 mm
11:50 PM 52.3°F11.3°C 51.2°F10.7°C 96% 17.3 mph WSW27.8 kmh WSW 32.2 mph51.8 kmh 29.54 in1000.3 mb - 0.00 in0.0 mm 0.12 in3.0 mm